sensor_id;sensor_type;location;lat;lon;timestamp;temperature;humidity
45207;DHT22;30950;53.086;21.576;2024-03-02T00:00:40;8.40;99.90
45207;DHT22;30950;53.086;21.576;2024-03-02T00:03:28;8.40;99.90
45207;DHT22;30950;53.086;21.576;2024-03-02T00:05:55;8.40;99.90
45207;DHT22;30950;53.086;21.576;2024-03-02T00:08:24;8.30;99.90
45207;DHT22;30950;53.086;21.576;2024-03-02T00:10:58;8.30;99.90
45207;DHT22;30950;53.086;21.576;2024-03-02T00:13:26;8.30;99.90
45207;DHT22;30950;53.086;21.576;2024-03-02T00:15:54;8.30;99.90
45207;DHT22;30950;53.086;21.576;2024-03-02T00:18:32;8.30;99.90
45207;DHT22;30950;53.086;21.576;2024-03-02T00:21:00;8.20;99.90
45207;DHT22;30950;53.086;21.576;2024-03-02T00:23:29;8.20;99.90
45207;DHT22;30950;53.086;21.576;2024-03-02T00:25:57;8.20;99.90
45207;DHT22;30950;53.086;21.576;2024-03-02T00:28:28;8.20;99.90
45207;DHT22;30950;53.086;21.576;2024-03-02T00:31:03;8.10;99.90
45207;DHT22;30950;53.086;21.576;2024-03-02T00:33:32;8.10;99.90
45207;DHT22;30950;53.086;21.576;2024-03-02T00:36:01;8.10;99.90
45207;DHT22;30950;53.086;21.576;2024-03-02T00:38:30;8.10;99.90
45207;DHT22;30950;53.086;21.576;2024-03-02T00:40:58;8.10;99.90
45207;DHT22;30950;53.086;21.576;2024-03-02T00:46:13;8.10;99.90
45207;DHT22;30950;53.086;21.576;2024-03-02T00:48:45;8.00;99.90
45207;DHT22;30950;53.086;21.576;2024-03-02T00:51:13;8.00;99.90
45207;DHT22;30950;53.086;21.576;2024-03-02T00:53:40;8.00;99.90
45207;DHT22;30950;53.086;21.576;2024-03-02T00:56:09;8.00;99.90
45207;DHT22;30950;53.086;21.576;2024-03-02T00:58:37;7.90;99.90
45207;DHT22;30950;53.086;21.576;2024-03-02T01:01:05;7.90;99.90
45207;DHT22;30950;53.086;21.576;2024-03-02T01:03:34;7.90;99.90
45207;DHT22;30950;53.086;21.576;2024-03-02T01:06:01;7.90;99.90
45207;DHT22;30950;53.086;21.576;2024-03-02T01:08:29;7.90;99.90
45207;DHT22;30950;53.086;21.576;2024-03-02T01:10:56;7.90;99.90
45207;DHT22;30950;53.086;21.576;2024-03-02T01:13:23;7.90;99.90
45207;DHT22;30950;53.086;21.576;2024-03-02T01:15:51;7.90;99.90
45207;DHT22;30950;53.086;21.576;2024-03-02T01:18:18;7.80;99.90
45207;DHT22;30950;53.086;21.576;2024-03-02T01:20:46;7.80;99.90
45207;DHT22;30950;53.086;21.576;2024-03-02T01:23:13;7.80;99.90
45207;DHT22;30950;53.086;21.576;2024-03-02T01:25:41;7.80;99.90
45207;DHT22;30950;53.086;21.576;2024-03-02T01:28:08;7.80;99.90
45207;DHT22;30950;53.086;21.576;2024-03-02T01:30:35;7.80;99.90
45207;DHT22;30950;53.086;21.576;2024-03-02T01:33:03;7.80;99.90
45207;DHT22;30950;53.086;21.576;2024-03-02T01:35:32;7.80;99.90
45207;DHT22;30950;53.086;21.576;2024-03-02T01:38:00;7.80;99.90
45207;DHT22;30950;53.086;21.576;2024-03-02T01:40:27;7.80;99.90
45207;DHT22;30950;53.086;21.576;2024-03-02T01:42:55;7.80;99.90
45207;DHT22;30950;53.086;21.576;2024-03-02T01:45:25;7.80;99.90
45207;DHT22;30950;53.086;21.576;2024-03-02T01:47:52;7.80;99.90
45207;DHT22;30950;53.086;21.576;2024-03-02T01:50:29;7.70;99.90
45207;DHT22;30950;53.086;21.576;2024-03-02T01:52:56;7.70;99.90
45207;DHT22;30950;53.086;21.576;2024-03-02T01:55:24;7.70;99.90
45207;DHT22;30950;53.086;21.576;2024-03-02T01:57:51;7.70;99.90
45207;DHT22;30950;53.086;21.576;2024-03-02T02:00:19;7.70;99.90
45207;DHT22;30950;53.086;21.576;2024-03-02T02:02:47;7.70;99.90
45207;DHT22;30950;53.086;21.576;2024-03-02T02:05:15;7.70;99.90
45207;DHT22;30950;53.086;21.576;2024-03-02T02:07:43;7.60;99.90
45207;DHT22;30950;53.086;21.576;2024-03-02T02:10:10;7.70;99.90
45207;DHT22;30950;53.086;21.576;2024-03-02T02:12:38;7.70;99.90
45207;DHT22;30950;53.086;21.576;2024-03-02T02:15:51;7.60;99.90
45207;DHT22;30950;53.086;21.576;2024-03-02T02:17:54;7.60;99.90
45207;DHT22;30950;53.086;21.576;2024-03-02T02:20:22;7.60;99.90
45207;DHT22;30950;53.086;21.576;2024-03-02T02:22:56;7.60;99.90
45207;DHT22;30950;53.086;21.576;2024-03-02T02:25:24;7.60;99.90
45207;DHT22;30950;53.086;21.576;2024-03-02T02:27:51;7.60;99.90
45207;DHT22;30950;53.086;21.576;2024-03-02T02:30:29;7.60;99.90
45207;DHT22;30950;53.086;21.576;2024-03-02T02:32:57;7.60;99.90
45207;DHT22;30950;53.086;21.576;2024-03-02T02:35:25;7.50;99.90
45207;DHT22;30950;53.086;21.576;2024-03-02T02:37:53;7.50;99.90
45207;DHT22;30950;53.086;21.576;2024-03-02T02:40:21;7.50;99.90
45207;DHT22;30950;53.086;21.576;2024-03-02T02:42:49;7.50;99.90
45207;DHT22;30950;53.086;21.576;2024-03-02T02:45:17;7.50;99.90
45207;DHT22;30950;53.086;21.576;2024-03-02T02:47:44;7.50;99.90
45207;DHT22;30950;53.086;21.576;2024-03-02T02:50:12;7.50;99.90
45207;DHT22;30950;53.086;21.576;2024-03-02T02:52:40;7.50;99.90
45207;DHT22;30950;53.086;21.576;2024-03-02T02:55:09;6.70;99.90
45207;DHT22;30950;53.086;21.576;2024-03-02T02:57:37;7.50;99.90
45207;DHT22;30950;53.086;21.576;2024-03-02T03:00:07;7.50;99.90
45207;DHT22;30950;53.086;21.576;2024-03-02T03:02:37;7.40;99.90
45207;DHT22;30950;53.086;21.576;2024-03-02T03:05:05;7.40;99.90
45207;DHT22;30950;53.086;21.576;2024-03-02T03:07:33;7.50;99.90
45207;DHT22;30950;53.086;21.576;2024-03-02T03:10:04;7.50;99.90
45207;DHT22;30950;53.086;21.576;2024-03-02T03:12:32;7.40;99.90
45207;DHT22;30950;53.086;21.576;2024-03-02T03:14:59;7.50;99.90
45207;DHT22;30950;53.086;21.576;2024-03-02T03:17:27;7.50;99.90
45207;DHT22;30950;53.086;21.576;2024-03-02T03:19:54;7.50;99.90
45207;DHT22;30950;53.086;21.576;2024-03-02T03:22:22;7.50;99.90
45207;DHT22;30950;53.086;21.576;2024-03-02T03:24:49;7.40;99.90
45207;DHT22;30950;53.086;21.576;2024-03-02T03:27:17;7.40;99.90
45207;DHT22;30950;53.086;21.576;2024-03-02T03:29:44;7.40;99.90
45207;DHT22;30950;53.086;21.576;2024-03-02T03:32:11;7.40;99.90
45207;DHT22;30950;53.086;21.576;2024-03-02T03:34:39;7.40;99.90
45207;DHT22;30950;53.086;21.576;2024-03-02T03:37:07;7.40;99.90
45207;DHT22;30950;53.086;21.576;2024-03-02T03:39:35;7.40;99.90
45207;DHT22;30950;53.086;21.576;2024-03-02T03:42:05;7.40;99.90
45207;DHT22;30950;53.086;21.576;2024-03-02T03:44:32;7.40;99.90
45207;DHT22;30950;53.086;21.576;2024-03-02T03:47:00;7.30;99.90
45207;DHT22;30950;53.086;21.576;2024-03-02T03:49:30;7.30;99.90
45207;DHT22;30950;53.086;21.576;2024-03-02T03:51:57;7.30;99.90
45207;DHT22;30950;53.086;21.576;2024-03-02T03:54:25;7.30;99.90
45207;DHT22;30950;53.086;21.576;2024-03-02T03:56:52;7.40;99.90
45207;DHT22;30950;53.086;21.576;2024-03-02T03:59:20;7.40;99.90
45207;DHT22;30950;53.086;21.576;2024-03-02T04:01:47;7.40;99.90
45207;DHT22;30950;53.086;21.576;2024-03-02T04:04:14;7.30;99.90
45207;DHT22;30950;53.086;21.576;2024-03-02T04:06:42;7.30;99.90
45207;DHT22;30950;53.086;21.576;2024-03-02T04:09:09;7.20;99.90
45207;DHT22;30950;53.086;21.576;2024-03-02T04:11:36;7.30;99.90
45207;DHT22;30950;53.086;21.576;2024-03-02T04:14:04;7.30;99.90
45207;DHT22;30950;53.086;21.576;2024-03-02T04:16:33;7.30;99.90
45207;DHT22;30950;53.086;21.576;2024-03-02T04:19:00;7.30;99.90
45207;DHT22;30950;53.086;21.576;2024-03-02T04:21:30;7.20;99.90
45207;DHT22;30950;53.086;21.576;2024-03-02T04:23:58;7.20;99.90
45207;DHT22;30950;53.086;21.576;2024-03-02T04:26:26;7.20;99.90
45207;DHT22;30950;53.086;21.576;2024-03-02T04:28:54;7.20;99.90
45207;DHT22;30950;53.086;21.576;2024-03-02T04:31:21;7.10;99.90
45207;DHT22;30950;53.086;21.576;2024-03-02T04:33:48;7.00;99.90
45207;DHT22;30950;53.086;21.576;2024-03-02T04:36:16;7.10;99.90
45207;DHT22;30950;53.086;21.576;2024-03-02T04:38:44;7.10;99.90
45207;DHT22;30950;53.086;21.576;2024-03-02T04:41:11;7.00;99.90
45207;DHT22;30950;53.086;21.576;2024-03-02T04:43:38;7.00;99.90
45207;DHT22;30950;53.086;21.576;2024-03-02T04:46:06;7.00;99.90
45207;DHT22;30950;53.086;21.576;2024-03-02T04:48:34;7.00;99.90
45207;DHT22;30950;53.086;21.576;2024-03-02T04:51:01;7.00;99.90
45207;DHT22;30950;53.086;21.576;2024-03-02T04:53:29;7.00;99.90
45207;DHT22;30950;53.086;21.576;2024-03-02T04:55:56;7.00;99.90
45207;DHT22;30950;53.086;21.576;2024-03-02T04:58:42;7.00;99.90
45207;DHT22;30950;53.086;21.576;2024-03-02T05:01:09;7.00;99.90
45207;DHT22;30950;53.086;21.576;2024-03-02T05:03:37;7.00;99.90
45207;DHT22;30950;53.086;21.576;2024-03-02T05:06:05;7.00;99.90
45207;DHT22;30950;53.086;21.576;2024-03-02T05:08:33;7.00;99.90
45207;DHT22;30950;53.086;21.576;2024-03-02T05:11:00;7.00;99.90
45207;DHT22;30950;53.086;21.576;2024-03-02T05:13:47;7.00;99.90
45207;DHT22;30950;53.086;21.576;2024-03-02T05:16:15;7.00;99.90
45207;DHT22;30950;53.086;21.576;2024-03-02T05:18:42;7.00;99.90
45207;DHT22;30950;53.086;21.576;2024-03-02T05:21:10;7.00;99.90
45207;DHT22;30950;53.086;21.576;2024-03-02T05:23:38;6.90;99.90
45207;DHT22;30950;53.086;21.576;2024-03-02T05:26:06;6.90;99.90
45207;DHT22;30950;53.086;21.576;2024-03-02T05:28:33;6.90;99.90
45207;DHT22;30950;53.086;21.576;2024-03-02T05:31:00;6.90;99.90
45207;DHT22;30950;53.086;21.576;2024-03-02T05:33:28;6.90;99.90
45207;DHT22;30950;53.086;21.576;2024-03-02T05:35:57;6.90;99.90
45207;DHT22;30950;53.086;21.576;2024-03-02T05:38:24;7.40;99.90
45207;DHT22;30950;53.086;21.576;2024-03-02T05:40:52;6.90;99.90
45207;DHT22;30950;53.086;21.576;2024-03-02T05:43:19;6.70;99.90
45207;DHT22;30950;53.086;21.576;2024-03-02T05:45:47;6.90;99.90
45207;DHT22;30950;53.086;21.576;2024-03-02T05:48:14;6.90;99.90
45207;DHT22;30950;53.086;21.576;2024-03-02T05:50:42;6.90;99.90
45207;DHT22;30950;53.086;21.576;2024-03-02T05:53:09;6.90;99.90
45207;DHT22;30950;53.086;21.576;2024-03-02T05:55:36;6.90;99.90
45207;DHT22;30950;53.086;21.576;2024-03-02T05:58:03;6.90;99.90
45207;DHT22;30950;53.086;21.576;2024-03-02T06:00:34;6.90;99.90
45207;DHT22;30950;53.086;21.576;2024-03-02T06:03:01;7.00;99.90
45207;DHT22;30950;53.086;21.576;2024-03-02T06:05:29;7.00;99.90
45207;DHT22;30950;53.086;21.576;2024-03-02T06:07:56;7.00;99.90
45207;DHT22;30950;53.086;21.576;2024-03-02T06:10:23;7.10;99.90
45207;DHT22;30950;53.086;21.576;2024-03-02T06:12:50;7.00;99.90
45207;DHT22;30950;53.086;21.576;2024-03-02T06:15:18;7.10;99.90
45207;DHT22;30950;53.086;21.576;2024-03-02T06:17:45;7.10;99.90
45207;DHT22;30950;53.086;21.576;2024-03-02T06:20:13;7.10;99.90
45207;DHT22;30950;53.086;21.576;2024-03-02T06:22:40;7.10;99.90
45207;DHT22;30950;53.086;21.576;2024-03-02T06:25:08;7.20;99.90
45207;DHT22;30950;53.086;21.576;2024-03-02T06:27:35;7.20;99.90
45207;DHT22;30950;53.086;21.576;2024-03-02T06:30:03;7.20;99.90
45207;DHT22;30950;53.086;21.576;2024-03-02T06:32:31;7.20;99.90
45207;DHT22;30950;53.086;21.576;2024-03-02T06:34:59;7.30;99.90
45207;DHT22;30950;53.086;21.576;2024-03-02T06:37:26;7.20;99.90
45207;DHT22;30950;53.086;21.576;2024-03-02T06:39:54;7.20;99.90
45207;DHT22;30950;53.086;21.576;2024-03-02T06:42:21;7.30;99.90
45207;DHT22;30950;53.086;21.576;2024-03-02T06:44:49;7.10;99.90
45207;DHT22;30950;53.086;21.576;2024-03-02T06:47:18;7.30;99.90
45207;DHT22;30950;53.086;21.576;2024-03-02T06:49:47;7.30;99.90
45207;DHT22;30950;53.086;21.576;2024-03-02T06:52:14;7.30;99.90
45207;DHT22;30950;53.086;21.576;2024-03-02T06:54:42;7.40;99.90
45207;DHT22;30950;53.086;21.576;2024-03-02T06:57:09;7.40;99.90
45207;DHT22;30950;53.086;21.576;2024-03-02T06:59:37;7.30;99.90
45207;DHT22;30950;53.086;21.576;2024-03-02T07:02:04;7.40;99.90
45207;DHT22;30950;53.086;21.576;2024-03-02T07:04:32;7.40;99.90
45207;DHT22;30950;53.086;21.576;2024-03-02T07:06:59;7.50;99.90
45207;DHT22;30950;53.086;21.576;2024-03-02T07:09:27;7.40;99.90
45207;DHT22;30950;53.086;21.576;2024-03-02T07:11:54;7.40;99.90
45207;DHT22;30950;53.086;21.576;2024-03-02T07:14:21;7.50;99.90
45207;DHT22;30950;53.086;21.576;2024-03-02T07:17:04;7.50;99.90
45207;DHT22;30950;53.086;21.576;2024-03-02T07:19:31;7.50;99.90
45207;DHT22;30950;53.086;21.576;2024-03-02T07:21:59;7.60;99.90
45207;DHT22;30950;53.086;21.576;2024-03-02T07:24:26;7.60;99.90
45207;DHT22;30950;53.086;21.576;2024-03-02T07:26:56;7.60;99.90
45207;DHT22;30950;53.086;21.576;2024-03-02T07:29:23;7.60;99.90
45207;DHT22;30950;53.086;21.576;2024-03-02T07:31:51;7.60;99.90
45207;DHT22;30950;53.086;21.576;2024-03-02T07:34:18;7.60;99.90
45207;DHT22;30950;53.086;21.576;2024-03-02T07:36:45;7.70;99.90
45207;DHT22;30950;53.086;21.576;2024-03-02T07:39:13;7.70;99.90
45207;DHT22;30950;53.086;21.576;2024-03-02T07:41:40;7.70;99.90
45207;DHT22;30950;53.086;21.576;2024-03-02T07:44:08;7.70;99.90
45207;DHT22;30950;53.086;21.576;2024-03-02T07:46:35;7.80;99.90
45207;DHT22;30950;53.086;21.576;2024-03-02T07:49:02;7.80;99.90
45207;DHT22;30950;53.086;21.576;2024-03-02T07:51:30;7.80;99.90
45207;DHT22;30950;53.086;21.576;2024-03-02T07:53:57;7.90;99.90
45207;DHT22;30950;53.086;21.576;2024-03-02T07:56:25;7.90;99.90
45207;DHT22;30950;53.086;21.576;2024-03-02T07:58:52;8.00;99.90
45207;DHT22;30950;53.086;21.576;2024-03-02T08:01:19;8.00;99.90
45207;DHT22;30950;53.086;21.576;2024-03-02T08:03:47;8.00;99.90
45207;DHT22;30950;53.086;21.576;2024-03-02T08:06:15;8.10;99.90
45207;DHT22;30950;53.086;21.576;2024-03-02T08:08:43;8.10;99.90
45207;DHT22;30950;53.086;21.576;2024-03-02T08:11:10;8.10;99.90
45207;DHT22;30950;53.086;21.576;2024-03-02T08:13:38;8.10;99.90
45207;DHT22;30950;53.086;21.576;2024-03-02T08:16:05;8.20;99.90
45207;DHT22;30950;53.086;21.576;2024-03-02T08:18:34;8.10;99.90
45207;DHT22;30950;53.086;21.576;2024-03-02T08:21:02;8.20;99.90
45207;DHT22;30950;53.086;21.576;2024-03-02T08:23:29;8.20;99.90
45207;DHT22;30950;53.086;21.576;2024-03-02T08:25:57;8.30;99.90
45207;DHT22;30950;53.086;21.576;2024-03-02T08:28:25;8.30;99.90
45207;DHT22;30950;53.086;21.576;2024-03-02T08:30:52;8.30;99.90
45207;DHT22;30950;53.086;21.576;2024-03-02T08:33:19;8.30;99.90
45207;DHT22;30950;53.086;21.576;2024-03-02T08:35:47;8.30;99.90
45207;DHT22;30950;53.086;21.576;2024-03-02T08:38:14;8.30;99.90
45207;DHT22;30950;53.086;21.576;2024-03-02T08:40:42;8.30;99.90
45207;DHT22;30950;53.086;21.576;2024-03-02T08:43:09;8.20;99.90
45207;DHT22;30950;53.086;21.576;2024-03-02T08:45:36;8.30;99.90
45207;DHT22;30950;53.086;21.576;2024-03-02T08:48:06;8.30;99.90
45207;DHT22;30950;53.086;21.576;2024-03-02T08:50:33;8.30;99.90
45207;DHT22;30950;53.086;21.576;2024-03-02T08:53:01;8.30;99.90
45207;DHT22;30950;53.086;21.576;2024-03-02T08:55:28;8.30;99.90
45207;DHT22;30950;53.086;21.576;2024-03-02T08:57:56;8.30;99.90
45207;DHT22;30950;53.086;21.576;2024-03-02T09:00:23;8.30;99.90
45207;DHT22;30950;53.086;21.576;2024-03-02T09:02:51;8.30;99.90
45207;DHT22;30950;53.086;21.576;2024-03-02T09:05:19;8.30;99.90
45207;DHT22;30950;53.086;21.576;2024-03-02T09:07:46;8.00;99.90
45207;DHT22;30950;53.086;21.576;2024-03-02T09:10:14;8.30;99.90
45207;DHT22;30950;53.086;21.576;2024-03-02T09:12:41;8.30;99.90
45207;DHT22;30950;53.086;21.576;2024-03-02T09:15:09;8.30;99.90
45207;DHT22;30950;53.086;21.576;2024-03-02T09:17:37;8.40;99.90
45207;DHT22;30950;53.086;21.576;2024-03-02T09:20:05;8.50;99.90
45207;DHT22;30950;53.086;21.576;2024-03-02T09:22:32;8.50;99.90
45207;DHT22;30950;53.086;21.576;2024-03-02T09:25:00;8.60;99.90
45207;DHT22;30950;53.086;21.576;2024-03-02T09:27:27;8.60;99.90
45207;DHT22;30950;53.086;21.576;2024-03-02T09:29:55;8.70;99.90
45207;DHT22;30950;53.086;21.576;2024-03-02T09:32:22;8.90;99.90
45207;DHT22;30950;53.086;21.576;2024-03-02T09:34:50;8.90;99.90
45207;DHT22;30950;53.086;21.576;2024-03-02T09:37:18;8.90;99.90
45207;DHT22;30950;53.086;21.576;2024-03-02T09:39:45;9.00;99.90
45207;DHT22;30950;53.086;21.576;2024-03-02T09:42:12;9.10;99.90
45207;DHT22;30950;53.086;21.576;2024-03-02T09:44:40;9.20;99.90
45207;DHT22;30950;53.086;21.576;2024-03-02T09:47:08;9.20;99.90
45207;DHT22;30950;53.086;21.576;2024-03-02T09:49:35;9.20;99.90
45207;DHT22;30950;53.086;21.576;2024-03-02T09:52:06;9.20;99.90
45207;DHT22;30950;53.086;21.576;2024-03-02T09:54:34;9.30;99.90
45207;DHT22;30950;53.086;21.576;2024-03-02T09:57:02;9.30;99.90
45207;DHT22;30950;53.086;21.576;2024-03-02T09:59:29;9.40;99.90
45207;DHT22;30950;53.086;21.576;2024-03-02T10:04:25;9.40;99.90
45207;DHT22;30950;53.086;21.576;2024-03-02T10:09:35;9.50;99.90
45207;DHT22;30950;53.086;21.576;2024-03-02T10:12:03;9.60;99.90
45207;DHT22;30950;53.086;21.576;2024-03-02T10:14:31;9.70;99.90
45207;DHT22;30950;53.086;21.576;2024-03-02T10:17:11;9.60;99.90
45207;DHT22;30950;53.086;21.576;2024-03-02T10:19:39;9.70;99.90
45207;DHT22;30950;53.086;21.576;2024-03-02T10:22:07;9.80;99.90
45207;DHT22;30950;53.086;21.576;2024-03-02T10:27:16;9.80;99.90
45207;DHT22;30950;53.086;21.576;2024-03-02T10:29:47;9.90;99.90
45207;DHT22;30950;53.086;21.576;2024-03-02T10:32:15;9.90;99.90
45207;DHT22;30950;53.086;21.576;2024-03-02T10:34:45;10.00;99.90
45207;DHT22;30950;53.086;21.576;2024-03-02T10:37:14;10.10;99.90
45207;DHT22;30950;53.086;21.576;2024-03-02T10:39:42;10.20;99.90
45207;DHT22;30950;53.086;21.576;2024-03-02T10:42:10;10.20;99.90
45207;DHT22;30950;53.086;21.576;2024-03-02T10:44:38;10.20;99.90
45207;DHT22;30950;53.086;21.576;2024-03-02T10:47:06;10.20;99.90
45207;DHT22;30950;53.086;21.576;2024-03-02T10:49:33;10.30;99.90
45207;DHT22;30950;53.086;21.576;2024-03-02T10:52:01;10.30;99.90
45207;DHT22;30950;53.086;21.576;2024-03-02T10:54:29;10.30;99.90
45207;DHT22;30950;53.086;21.576;2024-03-02T10:57:04;10.40;99.90
45207;DHT22;30950;53.086;21.576;2024-03-02T10:59:33;10.50;99.90
45207;DHT22;30950;53.086;21.576;2024-03-02T11:02:01;10.60;99.90
45207;DHT22;30950;53.086;21.576;2024-03-02T11:04:32;10.60;99.90
45207;DHT22;30950;53.086;21.576;2024-03-02T11:07:07;10.70;99.90
45207;DHT22;30950;53.086;21.576;2024-03-02T11:09:35;10.80;99.90
45207;DHT22;30950;53.086;21.576;2024-03-02T11:12:23;10.80;99.90
45207;DHT22;30950;53.086;21.576;2024-03-02T11:14:55;10.90;99.90
45207;DHT22;30950;53.086;21.576;2024-03-02T11:17:23;10.90;99.90
45207;DHT22;30950;53.086;21.576;2024-03-02T11:19:51;10.90;99.90
45207;DHT22;30950;53.086;21.576;2024-03-02T11:22:20;11.00;99.90
45207;DHT22;30950;53.086;21.576;2024-03-02T11:24:51;11.00;99.90
45207;DHT22;30950;53.086;21.576;2024-03-02T11:30:05;11.00;99.90
45207;DHT22;30950;53.086;21.576;2024-03-02T11:32:35;11.00;99.90
45207;DHT22;30950;53.086;21.576;2024-03-02T11:35:02;11.10;99.90
45207;DHT22;30950;53.086;21.576;2024-03-02T11:37:30;11.10;99.90
45207;DHT22;30950;53.086;21.576;2024-03-02T11:39:58;11.10;99.90
45207;DHT22;30950;53.086;21.576;2024-03-02T11:42:25;11.20;99.90
45207;DHT22;30950;53.086;21.576;2024-03-02T11:44:53;11.20;99.90
45207;DHT22;30950;53.086;21.576;2024-03-02T11:47:24;11.20;99.90
45207;DHT22;30950;53.086;21.576;2024-03-02T11:50:00;11.20;99.90
45207;DHT22;30950;53.086;21.576;2024-03-02T11:52:28;11.20;99.90
45207;DHT22;30950;53.086;21.576;2024-03-02T11:54:55;11.30;99.90
45207;DHT22;30950;53.086;21.576;2024-03-02T11:57:23;11.30;99.90
45207;DHT22;30950;53.086;21.576;2024-03-02T11:59:51;11.40;99.90
45207;DHT22;30950;53.086;21.576;2024-03-02T12:02:19;11.40;99.90
45207;DHT22;30950;53.086;21.576;2024-03-02T12:04:48;11.40;99.90
45207;DHT22;30950;53.086;21.576;2024-03-02T12:07:19;11.40;99.90
45207;DHT22;30950;53.086;21.576;2024-03-02T12:10:01;11.30;99.90
45207;DHT22;30950;53.086;21.576;2024-03-02T12:12:30;11.40;99.90
45207;DHT22;30950;53.086;21.576;2024-03-02T12:14:59;11.50;99.90
45207;DHT22;30950;53.086;21.576;2024-03-02T12:17:28;11.50;99.90
45207;DHT22;30950;53.086;21.576;2024-03-02T12:19:58;11.40;99.90
45207;DHT22;30950;53.086;21.576;2024-03-02T12:22:26;11.40;99.90
45207;DHT22;30950;53.086;21.576;2024-03-02T12:24:56;11.50;99.90
45207;DHT22;30950;53.086;21.576;2024-03-02T12:27:24;11.50;99.90
45207;DHT22;30950;53.086;21.576;2024-03-02T12:29:52;11.60;99.90
45207;DHT22;30950;53.086;21.576;2024-03-02T12:32:20;11.60;99.90
45207;DHT22;30950;53.086;21.576;2024-03-02T12:34:50;11.60;99.90
45207;DHT22;30950;53.086;21.576;2024-03-02T12:37:18;11.50;99.90
45207;DHT22;30950;53.086;21.576;2024-03-02T12:39:46;11.40;99.90
45207;DHT22;30950;53.086;21.576;2024-03-02T12:42:14;11.40;99.90
45207;DHT22;30950;53.086;21.576;2024-03-02T12:44:42;11.30;99.90
45207;DHT22;30950;53.086;21.576;2024-03-02T12:47:10;11.30;99.90
45207;DHT22;30950;53.086;21.576;2024-03-02T12:49:40;11.20;99.90
45207;DHT22;30950;53.086;21.576;2024-03-02T12:52:08;11.20;99.90
45207;DHT22;30950;53.086;21.576;2024-03-02T12:54:38;11.10;99.90
45207;DHT22;30950;53.086;21.576;2024-03-02T12:57:06;11.10;99.90
45207;DHT22;30950;53.086;21.576;2024-03-02T12:59:34;11.00;99.90
45207;DHT22;30950;53.086;21.576;2024-03-02T13:02:04;11.00;99.90
45207;DHT22;30950;53.086;21.576;2024-03-02T13:04:35;10.90;99.90
45207;DHT22;30950;53.086;21.576;2024-03-02T13:07:03;10.90;99.90
45207;DHT22;30950;53.086;21.576;2024-03-02T13:09:30;10.80;99.90
45207;DHT22;30950;53.086;21.576;2024-03-02T13:12:00;10.70;99.90
45207;DHT22;30950;53.086;21.576;2024-03-02T13:14:35;10.70;99.90
45207;DHT22;30950;53.086;21.576;2024-03-02T13:17:05;10.60;99.90
45207;DHT22;30950;53.086;21.576;2024-03-02T13:19:34;10.60;99.90
45207;DHT22;30950;53.086;21.576;2024-03-02T13:22:02;10.60;99.90
45207;DHT22;30950;53.086;21.576;2024-03-02T13:24:30;10.60;99.90
45207;DHT22;30950;53.086;21.576;2024-03-02T13:26:58;10.60;99.90
45207;DHT22;30950;53.086;21.576;2024-03-02T13:29:27;10.60;99.90
45207;DHT22;30950;53.086;21.576;2024-03-02T13:31:55;10.60;99.90
45207;DHT22;30950;53.086;21.576;2024-03-02T13:34:22;10.70;99.90
45207;DHT22;30950;53.086;21.576;2024-03-02T13:36:49;10.70;99.90
45207;DHT22;30950;53.086;21.576;2024-03-02T13:39:17;10.70;99.90
45207;DHT22;30950;53.086;21.576;2024-03-02T13:41:45;10.80;99.90
45207;DHT22;30950;53.086;21.576;2024-03-02T13:44:19;10.80;99.90
45207;DHT22;30950;53.086;21.576;2024-03-02T13:46:47;10.80;99.90
45207;DHT22;30950;53.086;21.576;2024-03-02T13:49:15;10.80;99.90
45207;DHT22;30950;53.086;21.576;2024-03-02T13:51:42;10.80;99.90
45207;DHT22;30950;53.086;21.576;2024-03-02T13:54:10;10.80;99.90
45207;DHT22;30950;53.086;21.576;2024-03-02T13:56:37;10.70;99.90
45207;DHT22;30950;53.086;21.576;2024-03-02T13:59:06;10.70;99.90
45207;DHT22;30950;53.086;21.576;2024-03-02T14:01:33;10.70;99.90
45207;DHT22;30950;53.086;21.576;2024-03-02T14:04:01;10.70;99.90
45207;DHT22;30950;53.086;21.576;2024-03-02T14:06:28;10.70;99.90
45207;DHT22;30950;53.086;21.576;2024-03-02T14:08:56;10.70;99.90
45207;DHT22;30950;53.086;21.576;2024-03-02T14:11:23;10.70;99.90
45207;DHT22;30950;53.086;21.576;2024-03-02T14:13:51;10.60;99.90
45207;DHT22;30950;53.086;21.576;2024-03-02T14:16:21;10.60;99.90
45207;DHT22;30950;53.086;21.576;2024-03-02T14:18:48;10.60;99.90
45207;DHT22;30950;53.086;21.576;2024-03-02T14:21:16;10.50;99.90
45207;DHT22;30950;53.086;21.576;2024-03-02T14:23:44;10.50;99.90
45207;DHT22;30950;53.086;21.576;2024-03-02T14:26:14;10.50;99.90
45207;DHT22;30950;53.086;21.576;2024-03-02T14:28:44;10.50;99.90
45207;DHT22;30950;53.086;21.576;2024-03-02T14:31:17;10.40;99.90
45207;DHT22;30950;53.086;21.576;2024-03-02T14:33:45;10.40;99.90
45207;DHT22;30950;53.086;21.576;2024-03-02T14:36:13;10.40;99.90
45207;DHT22;30950;53.086;21.576;2024-03-02T14:38:40;10.40;99.90
45207;DHT22;30950;53.086;21.576;2024-03-02T14:41:08;10.30;99.90
45207;DHT22;30950;53.086;21.576;2024-03-02T14:43:36;10.30;99.90
45207;DHT22;30950;53.086;21.576;2024-03-02T14:46:04;10.20;99.90
45207;DHT22;30950;53.086;21.576;2024-03-02T14:48:32;10.20;99.90
45207;DHT22;30950;53.086;21.576;2024-03-02T14:50:59;10.20;99.90
45207;DHT22;30950;53.086;21.576;2024-03-02T14:53:27;10.20;99.90
45207;DHT22;30950;53.086;21.576;2024-03-02T14:55:55;10.10;99.90
45207;DHT22;30950;53.086;21.576;2024-03-02T14:58:22;10.10;99.90
45207;DHT22;30950;53.086;21.576;2024-03-02T15:00:50;10.10;99.90
45207;DHT22;30950;53.086;21.576;2024-03-02T15:03:17;10.10;99.90
45207;DHT22;30950;53.086;21.576;2024-03-02T15:05:47;10.00;99.90
45207;DHT22;30950;53.086;21.576;2024-03-02T15:08:18;10.00;99.90
45207;DHT22;30950;53.086;21.576;2024-03-02T15:10:46;10.00;99.90
45207;DHT22;30950;53.086;21.576;2024-03-02T15:13:14;9.90;99.90
45207;DHT22;30950;53.086;21.576;2024-03-02T15:15:41;9.90;99.90
45207;DHT22;30950;53.086;21.576;2024-03-02T15:18:08;9.70;99.90
45207;DHT22;30950;53.086;21.576;2024-03-02T15:20:36;9.80;99.90
45207;DHT22;30950;53.086;21.576;2024-03-02T15:23:03;9.80;99.90
45207;DHT22;30950;53.086;21.576;2024-03-02T15:25:31;9.80;99.90
45207;DHT22;30950;53.086;21.576;2024-03-02T15:27:58;9.80;99.90
45207;DHT22;30950;53.086;21.576;2024-03-02T15:30:26;9.70;99.90
45207;DHT22;30950;53.086;21.576;2024-03-02T15:32:53;9.70;99.90
45207;DHT22;30950;53.086;21.576;2024-03-02T15:35:23;9.40;99.90
45207;DHT22;30950;53.086;21.576;2024-03-02T15:37:51;9.60;99.90
45207;DHT22;30950;53.086;21.576;2024-03-02T15:40:18;9.80;99.90
45207;DHT22;30950;53.086;21.576;2024-03-02T15:42:45;9.60;99.90
45207;DHT22;30950;53.086;21.576;2024-03-02T15:45:13;9.60;99.90
45207;DHT22;30950;53.086;21.576;2024-03-02T15:47:40;9.60;99.90